sensor_id;sensor_type;location;lat;lon;timestamp;P1;durP1;ratioP1;P2;durP2;ratioP2
4305;SDS011;2166;49.926;8.608;2024-03-08T00:00:39;23.63;;;13.63;;
4305;SDS011;2166;49.926;8.608;2024-03-08T00:03:10;26.50;;;15.20;;
4305;SDS011;2166;49.926;8.608;2024-03-08T00:05:39;21.70;;;12.75;;
4305;SDS011;2166;49.926;8.608;2024-03-08T00:08:08;23.30;;;12.40;;
4305;SDS011;2166;49.926;8.608;2024-03-08T00:10:37;26.02;;;12.45;;
4305;SDS011;2166;49.926;8.608;2024-03-08T00:13:05;27.55;;;14.90;;
4305;SDS011;2166;49.926;8.608;2024-03-08T00:15:34;25.38;;;13.55;;
4305;SDS011;2166;49.926;8.608;2024-03-08T00:18:02;23.98;;;13.20;;
4305;SDS011;2166;49.926;8.608;2024-03-08T00:20:32;28.08;;;13.82;;
4305;SDS011;2166;49.926;8.608;2024-03-08T00:23:00;23.00;;;13.15;;
4305;SDS011;2166;49.926;8.608;2024-03-08T00:25:29;23.20;;;13.75;;
4305;SDS011;2166;49.926;8.608;2024-03-08T00:27:57;24.30;;;13.30;;
4305;SDS011;2166;49.926;8.608;2024-03-08T00:30:26;20.13;;;12.25;;
4305;SDS011;2166;49.926;8.608;2024-03-08T00:32:54;21.75;;;12.38;;
4305;SDS011;2166;49.926;8.608;2024-03-08T00:35:22;23.80;;;12.00;;
4305;SDS011;2166;49.926;8.608;2024-03-08T00:37:52;21.77;;;14.00;;
4305;SDS011;2166;49.926;8.608;2024-03-08T00:40:22;21.63;;;13.90;;
4305;SDS011;2166;49.926;8.608;2024-03-08T00:42:51;25.10;;;14.23;;
4305;SDS011;2166;49.926;8.608;2024-03-08T00:45:19;20.45;;;12.60;;
4305;SDS011;2166;49.926;8.608;2024-03-08T00:47:48;23.23;;;13.93;;
4305;SDS011;2166;49.926;8.608;2024-03-08T00:50:17;21.50;;;12.90;;
4305;SDS011;2166;49.926;8.608;2024-03-08T00:52:45;24.63;;;14.90;;
4305;SDS011;2166;49.926;8.608;2024-03-08T00:55:15;24.95;;;13.68;;
4305;SDS011;2166;49.926;8.608;2024-03-08T00:57:44;27.33;;;14.73;;
4305;SDS011;2166;49.926;8.608;2024-03-08T01:00:12;27.20;;;15.40;;
4305;SDS011;2166;49.926;8.608;2024-03-08T01:02:41;18.17;;;12.07;;
4305;SDS011;2166;49.926;8.608;2024-03-08T01:05:09;27.67;;;13.95;;
4305;SDS011;2166;49.926;8.608;2024-03-08T01:07:38;21.42;;;11.80;;
4305;SDS011;2166;49.926;8.608;2024-03-08T01:10:07;22.70;;;12.73;;
4305;SDS011;2166;49.926;8.608;2024-03-08T01:12:38;28.98;;;15.35;;
4305;SDS011;2166;49.926;8.608;2024-03-08T01:15:07;29.50;;;14.93;;
4305;SDS011;2166;49.926;8.608;2024-03-08T01:17:35;24.33;;;14.30;;
4305;SDS011;2166;49.926;8.608;2024-03-08T01:20:04;25.17;;;14.65;;
4305;SDS011;2166;49.926;8.608;2024-03-08T01:22:33;24.98;;;14.20;;
4305;SDS011;2166;49.926;8.608;2024-03-08T01:25:01;21.05;;;12.90;;
4305;SDS011;2166;49.926;8.608;2024-03-08T01:27:31;24.50;;;14.50;;
4305;SDS011;2166;49.926;8.608;2024-03-08T01:30:02;26.25;;;14.07;;
4305;SDS011;2166;49.926;8.608;2024-03-08T01:32:31;21.58;;;12.45;;
4305;SDS011;2166;49.926;8.608;2024-03-08T01:35:00;23.50;;;13.30;;
4305;SDS011;2166;49.926;8.608;2024-03-08T01:37:29;27.60;;;15.52;;
4305;SDS011;2166;49.926;8.608;2024-03-08T01:39:57;23.50;;;13.93;;
4305;SDS011;2166;49.926;8.608;2024-03-08T01:42:26;23.10;;;13.38;;
4305;SDS011;2166;49.926;8.608;2024-03-08T01:44:56;29.30;;;14.55;;
4305;SDS011;2166;49.926;8.608;2024-03-08T01:47:26;22.67;;;12.98;;
4305;SDS011;2166;49.926;8.608;2024-03-08T01:49:54;22.83;;;13.10;;
4305;SDS011;2166;49.926;8.608;2024-03-08T01:52:25;27.38;;;14.25;;
4305;SDS011;2166;49.926;8.608;2024-03-08T01:54:53;26.25;;;15.10;;
4305;SDS011;2166;49.926;8.608;2024-03-08T01:57:22;26.13;;;14.13;;
4305;SDS011;2166;49.926;8.608;2024-03-08T01:59:51;22.45;;;13.18;;
4305;SDS011;2166;49.926;8.608;2024-03-08T02:02:21;27.83;;;14.90;;
4305;SDS011;2166;49.926;8.608;2024-03-08T02:04:51;29.52;;;14.45;;
4305;SDS011;2166;49.926;8.608;2024-03-08T02:07:20;26.33;;;14.70;;
4305;SDS011;2166;49.926;8.608;2024-03-08T02:09:49;27.13;;;13.13;;
4305;SDS011;2166;49.926;8.608;2024-03-08T02:12:17;28.30;;;16.88;;
4305;SDS011;2166;49.926;8.608;2024-03-08T02:14:47;22.38;;;12.35;;
4305;SDS011;2166;49.926;8.608;2024-03-08T02:17:15;29.77;;;15.13;;
4305;SDS011;2166;49.926;8.608;2024-03-08T02:19:44;28.58;;;15.18;;
4305;SDS011;2166;49.926;8.608;2024-03-08T02:22:14;28.45;;;16.27;;
4305;SDS011;2166;49.926;8.608;2024-03-08T02:24:42;26.60;;;14.45;;
4305;SDS011;2166;49.926;8.608;2024-03-08T02:27:11;28.85;;;15.25;;
4305;SDS011;2166;49.926;8.608;2024-03-08T02:29:39;29.10;;;16.45;;
4305;SDS011;2166;49.926;8.608;2024-03-08T02:32:09;26.95;;;15.07;;
4305;SDS011;2166;49.926;8.608;2024-03-08T02:34:37;24.20;;;14.52;;
4305;SDS011;2166;49.926;8.608;2024-03-08T02:37:06;29.00;;;15.18;;
4305;SDS011;2166;49.926;8.608;2024-03-08T02:39:36;28.08;;;15.27;;
4305;SDS011;2166;49.926;8.608;2024-03-08T02:42:04;21.30;;;11.65;;
4305;SDS011;2166;49.926;8.608;2024-03-08T02:44:33;31.88;;;16.52;;
4305;SDS011;2166;49.926;8.608;2024-03-08T02:47:02;28.90;;;14.77;;
4305;SDS011;2166;49.926;8.608;2024-03-08T02:49:30;27.98;;;14.95;;
4305;SDS011;2166;49.926;8.608;2024-03-08T02:51:58;28.73;;;15.10;;
4305;SDS011;2166;49.926;8.608;2024-03-08T02:54:27;30.65;;;16.15;;
4305;SDS011;2166;49.926;8.608;2024-03-08T02:56:56;17.83;;;10.77;;
4305;SDS011;2166;49.926;8.608;2024-03-08T02:59:24;22.23;;;13.05;;
4305;SDS011;2166;49.926;8.608;2024-03-08T03:01:53;24.38;;;13.70;;
4305;SDS011;2166;49.926;8.608;2024-03-08T03:04:21;26.25;;;14.63;;
4305;SDS011;2166;49.926;8.608;2024-03-08T03:06:49;28.08;;;15.45;;
4305;SDS011;2166;49.926;8.608;2024-03-08T03:09:17;30.80;;;14.82;;
4305;SDS011;2166;49.926;8.608;2024-03-08T03:11:50;28.20;;;14.38;;
4305;SDS011;2166;49.926;8.608;2024-03-08T03:14:19;26.85;;;15.20;;
4305;SDS011;2166;49.926;8.608;2024-03-08T03:16:48;31.27;;;16.35;;
4305;SDS011;2166;49.926;8.608;2024-03-08T03:19:16;26.65;;;15.25;;
4305;SDS011;2166;49.926;8.608;2024-03-08T03:21:44;27.48;;;14.52;;
4305;SDS011;2166;49.926;8.608;2024-03-08T03:24:12;23.80;;;14.05;;
4305;SDS011;2166;49.926;8.608;2024-03-08T03:26:43;29.70;;;15.80;;
4305;SDS011;2166;49.926;8.608;2024-03-08T03:29:12;28.35;;;15.73;;
4305;SDS011;2166;49.926;8.608;2024-03-08T03:31:42;29.33;;;15.55;;
4305;SDS011;2166;49.926;8.608;2024-03-08T03:34:11;32.55;;;16.42;;
4305;SDS011;2166;49.926;8.608;2024-03-08T03:36:39;28.95;;;16.17;;
4305;SDS011;2166;49.926;8.608;2024-03-08T03:39:09;30.02;;;16.73;;
4305;SDS011;2166;49.926;8.608;2024-03-08T03:41:42;30.40;;;16.25;;
4305;SDS011;2166;49.926;8.608;2024-03-08T03:44:12;28.15;;;15.60;;
4305;SDS011;2166;49.926;8.608;2024-03-08T03:46:42;33.67;;;15.32;;
4305;SDS011;2166;49.926;8.608;2024-03-08T03:49:11;32.88;;;17.58;;
4305;SDS011;2166;49.926;8.608;2024-03-08T03:51:39;32.65;;;16.98;;
4305;SDS011;2166;49.926;8.608;2024-03-08T03:54:07;34.15;;;17.45;;
4305;SDS011;2166;49.926;8.608;2024-03-08T03:56:36;30.60;;;16.27;;
4305;SDS011;2166;49.926;8.608;2024-03-08T03:59:04;30.67;;;15.52;;
4305;SDS011;2166;49.926;8.608;2024-03-08T04:01:32;30.00;;;16.27;;
4305;SDS011;2166;49.926;8.608;2024-03-08T04:04:06;30.70;;;16.45;;
4305;SDS011;2166;49.926;8.608;2024-03-08T04:06:34;29.75;;;16.83;;
4305;SDS011;2166;49.926;8.608;2024-03-08T04:09:02;31.23;;;16.00;;
4305;SDS011;2166;49.926;8.608;2024-03-08T04:11:31;31.15;;;16.65;;
4305;SDS011;2166;49.926;8.608;2024-03-08T04:13:59;31.63;;;16.88;;
4305;SDS011;2166;49.926;8.608;2024-03-08T04:16:28;32.17;;;18.02;;
4305;SDS011;2166;49.926;8.608;2024-03-08T04:18:56;35.55;;;17.73;;
4305;SDS011;2166;49.926;8.608;2024-03-08T04:21:25;29.55;;;16.05;;
4305;SDS011;2166;49.926;8.608;2024-03-08T04:23:54;30.67;;;16.30;;
4305;SDS011;2166;49.926;8.608;2024-03-08T04:26:22;35.38;;;17.25;;
4305;SDS011;2166;49.926;8.608;2024-03-08T04:28:52;32.58;;;16.60;;
4305;SDS011;2166;49.926;8.608;2024-03-08T04:31:20;31.23;;;16.38;;
4305;SDS011;2166;49.926;8.608;2024-03-08T04:33:49;29.48;;;17.35;;
4305;SDS011;2166;49.926;8.608;2024-03-08T04:36:17;29.02;;;16.80;;
4305;SDS011;2166;49.926;8.608;2024-03-08T04:38:47;30.38;;;17.35;;
4305;SDS011;2166;49.926;8.608;2024-03-08T04:41:15;33.00;;;17.20;;
4305;SDS011;2166;49.926;8.608;2024-03-08T04:43:44;30.10;;;16.05;;
4305;SDS011;2166;49.926;8.608;2024-03-08T04:46:13;31.75;;;17.17;;
4305;SDS011;2166;49.926;8.608;2024-03-08T04:48:41;34.03;;;17.10;;
4305;SDS011;2166;49.926;8.608;2024-03-08T04:51:09;31.85;;;16.95;;
4305;SDS011;2166;49.926;8.608;2024-03-08T04:53:38;34.13;;;17.05;;
4305;SDS011;2166;49.926;8.608;2024-03-08T04:56:07;30.40;;;15.75;;
4305;SDS011;2166;49.926;8.608;2024-03-08T04:58:36;31.95;;;16.85;;
4305;SDS011;2166;49.926;8.608;2024-03-08T05:01:04;36.60;;;17.65;;
4305;SDS011;2166;49.926;8.608;2024-03-08T05:03:37;33.95;;;16.33;;
4305;SDS011;2166;49.926;8.608;2024-03-08T05:06:05;34.17;;;17.70;;
4305;SDS011;2166;49.926;8.608;2024-03-08T05:08:34;34.78;;;16.92;;
4305;SDS011;2166;49.926;8.608;2024-03-08T05:11:03;31.77;;;16.88;;
4305;SDS011;2166;49.926;8.608;2024-03-08T05:13:35;31.67;;;17.25;;
4305;SDS011;2166;49.926;8.608;2024-03-08T05:16:04;34.90;;;17.00;;
4305;SDS011;2166;49.926;8.608;2024-03-08T05:18:33;32.30;;;16.58;;
4305;SDS011;2166;49.926;8.608;2024-03-08T05:21:02;31.08;;;17.45;;
4305;SDS011;2166;49.926;8.608;2024-03-08T05:23:30;31.58;;;16.95;;
4305;SDS011;2166;49.926;8.608;2024-03-08T05:25:59;28.83;;;16.55;;
4305;SDS011;2166;49.926;8.608;2024-03-08T05:28:27;41.88;;;19.10;;
4305;SDS011;2166;49.926;8.608;2024-03-08T05:30:57;34.60;;;18.85;;
4305;SDS011;2166;49.926;8.608;2024-03-08T05:33:25;31.38;;;16.77;;
4305;SDS011;2166;49.926;8.608;2024-03-08T05:35:53;35.20;;;18.95;;
4305;SDS011;2166;49.926;8.608;2024-03-08T05:38:22;35.08;;;18.02;;
4305;SDS011;2166;49.926;8.608;2024-03-08T05:40:51;32.50;;;17.77;;
4305;SDS011;2166;49.926;8.608;2024-03-08T05:43:19;36.33;;;18.88;;
4305;SDS011;2166;49.926;8.608;2024-03-08T05:45:47;32.90;;;18.23;;
4305;SDS011;2166;49.926;8.608;2024-03-08T05:48:16;36.33;;;18.60;;
4305;SDS011;2166;49.926;8.608;2024-03-08T05:50:46;33.72;;;18.23;;
4305;SDS011;2166;49.926;8.608;2024-03-08T05:53:14;36.05;;;18.63;;
4305;SDS011;2166;49.926;8.608;2024-03-08T05:55:42;35.47;;;17.45;;
4305;SDS011;2166;49.926;8.608;2024-03-08T05:58:11;35.15;;;18.95;;
4305;SDS011;2166;49.926;8.608;2024-03-08T06:00:39;35.90;;;18.73;;
4305;SDS011;2166;49.926;8.608;2024-03-08T06:03:07;36.95;;;18.60;;
4305;SDS011;2166;49.926;8.608;2024-03-08T06:05:37;31.98;;;17.77;;
4305;SDS011;2166;49.926;8.608;2024-03-08T06:08:08;34.38;;;18.13;;
4305;SDS011;2166;49.926;8.608;2024-03-08T06:10:38;36.53;;;18.45;;
4305;SDS011;2166;49.926;8.608;2024-03-08T06:13:06;31.92;;;17.50;;
4305;SDS011;2166;49.926;8.608;2024-03-08T06:15:34;35.17;;;17.23;;
4305;SDS011;2166;49.926;8.608;2024-03-08T06:18:02;34.85;;;18.52;;
4305;SDS011;2166;49.926;8.608;2024-03-08T06:20:32;38.67;;;18.27;;
4305;SDS011;2166;49.926;8.608;2024-03-08T06:23:02;34.30;;;18.33;;
4305;SDS011;2166;49.926;8.608;2024-03-08T06:25:30;33.35;;;17.17;;
4305;SDS011;2166;49.926;8.608;2024-03-08T06:27:58;34.42;;;17.48;;
4305;SDS011;2166;49.926;8.608;2024-03-08T06:30:27;28.70;;;16.38;;
4305;SDS011;2166;49.926;8.608;2024-03-08T06:32:55;32.88;;;17.15;;
4305;SDS011;2166;49.926;8.608;2024-03-08T06:35:25;30.25;;;16.63;;
4305;SDS011;2166;49.926;8.608;2024-03-08T06:37:54;26.55;;;15.82;;
4305;SDS011;2166;49.926;8.608;2024-03-08T06:40:23;25.63;;;14.50;;
4305;SDS011;2166;49.926;8.608;2024-03-08T06:42:51;26.35;;;14.63;;
4305;SDS011;2166;49.926;8.608;2024-03-08T06:45:19;32.78;;;17.13;;
4305;SDS011;2166;49.926;8.608;2024-03-08T06:47:50;34.17;;;17.83;;
4305;SDS011;2166;49.926;8.608;2024-03-08T06:50:18;28.88;;;16.10;;
4305;SDS011;2166;49.926;8.608;2024-03-08T06:52:46;29.08;;;16.13;;
4305;SDS011;2166;49.926;8.608;2024-03-08T06:55:19;26.33;;;14.52;;
4305;SDS011;2166;49.926;8.608;2024-03-08T06:57:49;29.88;;;16.83;;
4305;SDS011;2166;49.926;8.608;2024-03-08T07:00:18;32.50;;;16.23;;
4305;SDS011;2166;49.926;8.608;2024-03-08T07:02:47;24.80;;;14.77;;
4305;SDS011;2166;49.926;8.608;2024-03-08T07:05:16;28.67;;;15.15;;
4305;SDS011;2166;49.926;8.608;2024-03-08T07:07:44;27.25;;;14.93;;
4305;SDS011;2166;49.926;8.608;2024-03-08T07:10:14;31.00;;;16.33;;
4305;SDS011;2166;49.926;8.608;2024-03-08T07:12:43;27.05;;;15.65;;
4305;SDS011;2166;49.926;8.608;2024-03-08T07:15:13;25.15;;;15.00;;
4305;SDS011;2166;49.926;8.608;2024-03-08T07:17:41;27.80;;;15.23;;
4305;SDS011;2166;49.926;8.608;2024-03-08T07:20:11;25.83;;;16.20;;
4305;SDS011;2166;49.926;8.608;2024-03-08T07:22:40;26.45;;;16.10;;
4305;SDS011;2166;49.926;8.608;2024-03-08T07:25:13;28.55;;;15.40;;
4305;SDS011;2166;49.926;8.608;2024-03-08T07:27:48;28.58;;;15.73;;
4305;SDS011;2166;49.926;8.608;2024-03-08T07:30:19;25.58;;;14.38;;
4305;SDS011;2166;49.926;8.608;2024-03-08T07:33:05;22.70;;;14.45;;
4305;SDS011;2166;49.926;8.608;2024-03-08T07:35:34;26.02;;;15.27;;
4305;SDS011;2166;49.926;8.608;2024-03-08T07:38:04;23.27;;;14.60;;
4305;SDS011;2166;49.926;8.608;2024-03-08T07:40:34;22.88;;;15.00;;
4305;SDS011;2166;49.926;8.608;2024-03-08T07:43:03;20.38;;;13.73;;
4305;SDS011;2166;49.926;8.608;2024-03-08T07:45:33;24.67;;;14.52;;
4305;SDS011;2166;49.926;8.608;2024-03-08T07:48:02;26.55;;;15.10;;
4305;SDS011;2166;49.926;8.608;2024-03-08T07:50:37;24.58;;;15.07;;
4305;SDS011;2166;49.926;8.608;2024-03-08T07:53:06;24.90;;;15.57;;
4305;SDS011;2166;49.926;8.608;2024-03-08T07:55:35;25.42;;;15.07;;
4305;SDS011;2166;49.926;8.608;2024-03-08T07:58:04;27.58;;;15.23;;
4305;SDS011;2166;49.926;8.608;2024-03-08T08:00:34;25.98;;;15.77;;
4305;SDS011;2166;49.926;8.608;2024-03-08T08:03:03;29.25;;;15.75;;
4305;SDS011;2166;49.926;8.608;2024-03-08T08:05:31;27.52;;;16.08;;
4305;SDS011;2166;49.926;8.608;2024-03-08T08:08:02;25.90;;;14.43;;
4305;SDS011;2166;49.926;8.608;2024-03-08T08:10:33;25.58;;;14.52;;
4305;SDS011;2166;49.926;8.608;2024-03-08T08:13:01;23.75;;;15.07;;
4305;SDS011;2166;49.926;8.608;2024-03-08T08:15:31;21.42;;;13.02;;
4305;SDS011;2166;49.926;8.608;2024-03-08T08:18:01;23.45;;;14.68;;
4305;SDS011;2166;49.926;8.608;2024-03-08T08:20:32;22.75;;;14.60;;
4305;SDS011;2166;49.926;8.608;2024-03-08T08:23:01;25.60;;;14.60;;
4305;SDS011;2166;49.926;8.608;2024-03-08T08:25:29;23.85;;;14.95;;
4305;SDS011;2166;49.926;8.608;2024-03-08T08:28:01;25.48;;;15.63;;
4305;SDS011;2166;49.926;8.608;2024-03-08T08:30:31;24.45;;;14.70;;
4305;SDS011;2166;49.926;8.608;2024-03-08T08:33:01;25.38;;;14.52;;
4305;SDS011;2166;49.926;8.608;2024-03-08T08:35:32;23.25;;;13.45;;
4305;SDS011;2166;49.926;8.608;2024-03-08T08:38:00;20.05;;;13.63;;
4305;SDS011;2166;49.926;8.608;2024-03-08T08:40:30;20.02;;;12.27;;
4305;SDS011;2166;49.926;8.608;2024-03-08T08:42:59;23.25;;;13.73;;
4305;SDS011;2166;49.926;8.608;2024-03-08T08:45:29;24.27;;;14.25;;
4305;SDS011;2166;49.926;8.608;2024-03-08T08:47:58;24.27;;;14.90;;
4305;SDS011;2166;49.926;8.608;2024-03-08T08:50:28;23.80;;;14.68;;
4305;SDS011;2166;49.926;8.608;2024-03-08T08:52:57;23.65;;;14.32;;
4305;SDS011;2166;49.926;8.608;2024-03-08T08:55:26;21.02;;;14.35;;
4305;SDS011;2166;49.926;8.608;2024-03-08T08:57:55;24.15;;;13.50;;
4305;SDS011;2166;49.926;8.608;2024-03-08T09:00:23;23.90;;;14.18;;
4305;SDS011;2166;49.926;8.608;2024-03-08T09:02:54;24.25;;;13.93;;
4305;SDS011;2166;49.926;8.608;2024-03-08T09:05:25;25.45;;;13.90;;
4305;SDS011;2166;49.926;8.608;2024-03-08T09:07:55;21.20;;;13.35;;
4305;SDS011;2166;49.926;8.608;2024-03-08T09:10:24;20.42;;;12.90;;
4305;SDS011;2166;49.926;8.608;2024-03-08T09:12:55;22.75;;;11.93;;
4305;SDS011;2166;49.926;8.608;2024-03-08T09:15:23;20.05;;;11.63;;
4305;SDS011;2166;49.926;8.608;2024-03-08T09:17:55;20.27;;;12.02;;
4305;SDS011;2166;49.926;8.608;2024-03-08T09:20:24;18.42;;;12.00;;
4305;SDS011;2166;49.926;8.608;2024-03-08T09:22:52;24.48;;;13.77;;
4305;SDS011;2166;49.926;8.608;2024-03-08T09:25:23;18.70;;;12.13;;
4305;SDS011;2166;49.926;8.608;2024-03-08T09:27:52;19.92;;;12.13;;
4305;SDS011;2166;49.926;8.608;2024-03-08T09:30:21;21.98;;;13.38;;
4305;SDS011;2166;49.926;8.608;2024-03-08T09:32:50;23.35;;;12.98;;
4305;SDS011;2166;49.926;8.608;2024-03-08T09:35:21;21.52;;;12.18;;
4305;SDS011;2166;49.926;8.608;2024-03-08T09:37:49;20.73;;;12.50;;
4305;SDS011;2166;49.926;8.608;2024-03-08T09:40:18;22.15;;;12.27;;
4305;SDS011;2166;49.926;8.608;2024-03-08T09:42:49;20.05;;;12.45;;
4305;SDS011;2166;49.926;8.608;2024-03-08T09:45:19;19.77;;;12.05;;
4305;SDS011;2166;49.926;8.608;2024-03-08T09:47:49;20.70;;;12.15;;
4305;SDS011;2166;49.926;8.608;2024-03-08T09:50:17;19.15;;;12.95;;
4305;SDS011;2166;49.926;8.608;2024-03-08T09:52:46;18.17;;;11.45;;
4305;SDS011;2166;49.926;8.608;2024-03-08T09:55:15;23.42;;;13.00;;
4305;SDS011;2166;49.926;8.608;2024-03-08T09:57:50;19.73;;;12.43;;
4305;SDS011;2166;49.926;8.608;2024-03-08T10:00:37;22.75;;;12.93;;
4305;SDS011;2166;49.926;8.608;2024-03-08T10:03:05;19.10;;;12.82;;
4305;SDS011;2166;49.926;8.608;2024-03-08T10:05:37;16.90;;;11.30;;
4305;SDS011;2166;49.926;8.608;2024-03-08T10:08:05;21.05;;;12.07;;
4305;SDS011;2166;49.926;8.608;2024-03-08T10:10:33;20.38;;;12.60;;
4305;SDS011;2166;49.926;8.608;2024-03-08T10:13:03;21.33;;;12.52;;
4305;SDS011;2166;49.926;8.608;2024-03-08T10:15:33;20.67;;;13.00;;
4305;SDS011;2166;49.926;8.608;2024-03-08T10:18:01;19.85;;;13.02;;
4305;SDS011;2166;49.926;8.608;2024-03-08T10:20:30;19.15;;;12.48;;
4305;SDS011;2166;49.926;8.608;2024-03-08T10:23:03;22.42;;;12.77;;
4305;SDS011;2166;49.926;8.608;2024-03-08T10:25:37;21.73;;;12.93;;
4305;SDS011;2166;49.926;8.608;2024-03-08T10:28:07;18.15;;;12.45;;
4305;SDS011;2166;49.926;8.608;2024-03-08T10:30:35;17.75;;;12.52;;
4305;SDS011;2166;49.926;8.608;2024-03-08T10:33:04;19.50;;;13.05;;
4305;SDS011;2166;49.926;8.608;2024-03-08T10:35:33;20.27;;;11.30;;
4305;SDS011;2166;49.926;8.608;2024-03-08T10:38:01;21.48;;;12.82;;
4305;SDS011;2166;49.926;8.608;2024-03-08T10:40:34;18.75;;;12.57;;
4305;SDS011;2166;49.926;8.608;2024-03-08T10:43:08;19.60;;;12.85;;
4305;SDS011;2166;49.926;8.608;2024-03-08T10:45:42;20.63;;;13.85;;
4305;SDS011;2166;49.926;8.608;2024-03-08T10:48:20;22.02;;;13.00;;
4305;SDS011;2166;49.926;8.608;2024-03-08T10:51:03;22.13;;;12.00;;
4305;SDS011;2166;49.926;8.608;2024-03-08T10:53:34;20.38;;;12.27;;
4305;SDS011;2166;49.926;8.608;2024-03-08T10:56:07;18.20;;;11.48;;
4305;SDS011;2166;49.926;8.608;2024-03-08T10:58:38;18.88;;;12.13;;
4305;SDS011;2166;49.926;8.608;2024-03-08T11:01:08;20.92;;;13.30;;
4305;SDS011;2166;49.926;8.608;2024-03-08T11:03:46;18.52;;;11.20;;
4305;SDS011;2166;49.926;8.608;2024-03-08T11:06:22;19.38;;;11.20;;
4305;SDS011;2166;49.926;8.608;2024-03-08T11:08:56;17.10;;;12.20;;
4305;SDS011;2166;49.926;8.608;2024-03-08T11:11:25;20.00;;;12.43;;
4305;SDS011;2166;49.926;8.608;2024-03-08T11:14:01;22.17;;;12.27;;
4305;SDS011;2166;49.926;8.608;2024-03-08T11:16:38;22.40;;;13.40;;
4305;SDS011;2166;49.926;8.608;2024-03-08T11:19:23;21.60;;;13.93;;
4305;SDS011;2166;49.926;8.608;2024-03-08T11:21:59;19.40;;;12.57;;
4305;SDS011;2166;49.926;8.608;2024-03-08T11:24:36;20.27;;;13.52;;
4305;SDS011;2166;49.926;8.608;2024-03-08T11:27:09;23.25;;;12.90;;
4305;SDS011;2166;49.926;8.608;2024-03-08T11:29:40;21.63;;;13.68;;
4305;SDS011;2166;49.926;8.608;2024-03-08T11:32:08;18.02;;;12.50;;
4305;SDS011;2166;49.926;8.608;2024-03-08T11:34:40;20.55;;;13.60;;
4305;SDS011;2166;49.926;8.608;2024-03-08T11:37:12;19.70;;;13.75;;
4305;SDS011;2166;49.926;8.608;2024-03-08T11:39:46;20.42;;;13.98;;
4305;SDS011;2166;49.926;8.608;2024-03-08T11:42:16;19.25;;;12.88;;
4305;SDS011;2166;49.926;8.608;2024-03-08T11:44:47;20.10;;;13.55;;
4305;SDS011;2166;49.926;8.608;2024-03-08T11:47:19;22.33;;;13.93;;
4305;SDS011;2166;49.926;8.608;2024-03-08T11:49:48;19.48;;;12.52;;
4305;SDS011;2166;49.926;8.608;2024-03-08T11:52:18;19.60;;;13.20;;
4305;SDS011;2166;49.926;8.608;2024-03-08T11:54:51;20.20;;;13.68;;
4305;SDS011;2166;49.926;8.608;2024-03-08T11:57:24;21.25;;;14.30;;
4305;SDS011;2166;49.926;8.608;2024-03-08T11:59:56;20.83;;;13.88;;
4305;SDS011;2166;49.926;8.608;2024-03-08T12:02:35;20.05;;;13.50;;
4305;SDS011;2166;49.926;8.608;2024-03-08T12:05:05;18.27;;;11.82;;
4305;SDS011;2166;49.926;8.608;2024-03-08T12:07:36;22.23;;;13.27;;
4305;SDS011;2166;49.926;8.608;2024-03-08T12:10:14;17.58;;;12.65;;
4305;SDS011;2166;49.926;8.608;2024-03-08T12:12:44;19.27;;;11.75;;
4305;SDS011;2166;49.926;8.608;2024-03-08T12:15:15;17.58;;;12.50;;
4305;SDS011;2166;49.926;8.608;2024-03-08T12:17:44;19.30;;;13.52;;
4305;SDS011;2166;49.926;8.608;2024-03-08T12:20:15;22.02;;;13.07;;
4305;SDS011;2166;49.926;8.608;2024-03-08T12:22:44;17.05;;;12.48;;
4305;SDS011;2166;49.926;8.608;2024-03-08T12:25:13;20.60;;;13.25;;
4305;SDS011;2166;49.926;8.608;2024-03-08T12:27:43;18.98;;;12.95;;
4305;SDS011;2166;49.926;8.608;2024-03-08T12:30:20;18.75;;;13.00;;
4305;SDS011;2166;49.926;8.608;2024-03-08T12:32:51;20.08;;;13.93;;
4305;SDS011;2166;49.926;8.608;2024-03-08T12:35:23;18.23;;;12.63;;
4305;SDS011;2166;49.926;8.608;2024-03-08T12:37:53;18.70;;;11.00;;
4305;SDS011;2166;49.926;8.608;2024-03-08T12:40:26;20.67;;;12.85;;
4305;SDS011;2166;49.926;8.608;2024-03-08T12:42:55;19.48;;;13.70;;
4305;SDS011;2166;49.926;8.608;2024-03-08T12:45:25;19.02;;;13.38;;
4305;SDS011;2166;49.926;8.608;2024-03-08T12:47:54;23.23;;;14.15;;
4305;SDS011;2166;49.926;8.608;2024-03-08T12:50:23;19.98;;;13.25;;
4305;SDS011;2166;49.926;8.608;2024-03-08T12:52:52;20.58;;;14.65;;
4305;SDS011;2166;49.926;8.608;2024-03-08T12:55:21;19.73;;;12.73;;
4305;SDS011;2166;49.926;8.608;2024-03-08T12:57:49;17.70;;;12.32;;
4305;SDS011;2166;49.926;8.608;2024-03-08T13:00:19;20.52;;;13.75;;
4305;SDS011;2166;49.926;8.608;2024-03-08T13:02:52;20.25;;;13.73;;
4305;SDS011;2166;49.926;8.608;2024-03-08T13:05:20;20.33;;;12.23;;
4305;SDS011;2166;49.926;8.608;2024-03-08T13:07:49;17.70;;;12.65;;
4305;SDS011;2166;49.926;8.608;2024-03-08T13:10:20;18.02;;;12.93;;
4305;SDS011;2166;49.926;8.608;2024-03-08T13:12:49;17.95;;;12.77;;
4305;SDS011;2166;49.926;8.608;2024-03-08T13:15:20;21.55;;;13.75;;
4305;SDS011;2166;49.926;8.608;2024-03-08T13:17:48;20.10;;;13.07;;
4305;SDS011;2166;49.926;8.608;2024-03-08T13:20:18;28.83;;;13.82;;
4305;SDS011;2166;49.926;8.608;2024-03-08T13:22:59;20.55;;;13.60;;
4305;SDS011;2166;49.926;8.608;2024-03-08T13:25:28;21.08;;;13.70;;
4305;SDS011;2166;49.926;8.608;2024-03-08T13:27:56;20.48;;;13.35;;
4305;SDS011;2166;49.926;8.608;2024-03-08T13:30:27;21.33;;;12.88;;
4305;SDS011;2166;49.926;8.608;2024-03-08T13:32:57;19.40;;;12.48;;
4305;SDS011;2166;49.926;8.608;2024-03-08T13:35:27;21.10;;;14.05;;
4305;SDS011;2166;49.926;8.608;2024-03-08T13:37:57;22.88;;;14.02;;
4305;SDS011;2166;49.926;8.608;2024-03-08T13:40:25;20.38;;;14.02;;
4305;SDS011;2166;49.926;8.608;2024-03-08T13:42:54;23.10;;;14.57;;
4305;SDS011;2166;49.926;8.608;2024-03-08T13:45:23;20.95;;;13.75;;
4305;SDS011;2166;49.926;8.608;2024-03-08T13:47:52;18.52;;;12.25;;
4305;SDS011;2166;49.926;8.608;2024-03-08T13:50:22;20.08;;;12.60;;
4305;SDS011;2166;49.926;8.608;2024-03-08T13:52:51;18.40;;;11.90;;
4305;SDS011;2166;49.926;8.608;2024-03-08T13:55:22;21.25;;;13.30;;
4305;SDS011;2166;49.926;8.608;2024-03-08T13:57:52;19.50;;;13.27;;
4305;SDS011;2166;49.926;8.608;2024-03-08T14:00:21;21.02;;;13.43;;
4305;SDS011;2166;49.926;8.608;2024-03-08T14:02:51;19.35;;;12.32;;
4305;SDS011;2166;49.926;8.608;2024-03-08T14:05:20;23.20;;;13.63;;
4305;SDS011;2166;49.926;8.608;2024-03-08T14:07:49;17.52;;;12.40;;
4305;SDS011;2166;49.926;8.608;2024-03-08T14:10:21;17.52;;;12.68;;
4305;SDS011;2166;49.926;8.608;2024-03-08T14:12:50;18.83;;;12.82;;
4305;SDS011;2166;49.926;8.608;2024-03-08T14:15:19;20.70;;;12.48;;
4305;SDS011;2166;49.926;8.608;2024-03-08T14:17:52;20.23;;;12.40;;
4305;SDS011;2166;49.926;8.608;2024-03-08T14:20:21;18.95;;;12.23;;
4305;SDS011;2166;49.926;8.608;2024-03-08T14:22:53;19.67;;;11.90;;
4305;SDS011;2166;49.926;8.608;2024-03-08T14:25:23;18.70;;;11.82;;
4305;SDS011;2166;49.926;8.608;2024-03-08T14:27:53;19.23;;;13.43;;
4305;SDS011;2166;49.926;8.608;2024-03-08T14:30:25;20.10;;;12.65;;
4305;SDS011;2166;49.926;8.608;2024-03-08T14:33:04;20.85;;;12.52;;
4305;SDS011;2166;49.926;8.608;2024-03-08T14:35:36;20.55;;;13.25;;
4305;SDS011;2166;49.926;8.608;2024-03-08T14:38:07;18.55;;;12.50;;
4305;SDS011;2166;49.926;8.608;2024-03-08T14:40:37;18.60;;;12.13;;
4305;SDS011;2166;49.926;8.608;2024-03-08T14:43:06;18.02;;;12.73;;
4305;SDS011;2166;49.926;8.608;2024-03-08T14:45:34;17.45;;;11.95;;
4305;SDS011;2166;49.926;8.608;2024-03-08T14:48:05;19.85;;;12.70;;
4305;SDS011;2166;49.926;8.608;2024-03-08T14:50:34;20.05;;;11.48;;
4305;SDS011;2166;49.926;8.608;2024-03-08T14:53:04;20.02;;;12.23;;
4305;SDS011;2166;49.926;8.608;2024-03-08T14:55:35;19.75;;;13.18;;
4305;SDS011;2166;49.926;8.608;2024-03-08T14:58:04;18.35;;;11.75;;
4305;SDS011;2166;49.926;8.608;2024-03-08T15:00:32;22.80;;;12.00;;
4305;SDS011;2166;49.926;8.608;2024-03-08T15:03:01;22.65;;;12.82;;